Time;durP1;ratioP1;P1;durP2;ratioP2;P2;SDS_P1;SDS_P2;PMS_P1;PMS_P2;Temp;Humidity;BMP_temperature;BMP_pressure;BME280_temperature;BME280_humidity;BME280_pressure;Samples;Min_cycle;Max_cycle;Signal;HPM_P1;HPM_P2
2022/03/23 00:02:07;;;;;;;8.95;5.65;;;7.30;43.90;;;;;;5098063;28;20028;-70
2022/03/23 00:04:33;;;;;;;11.20;5.53;;;7.30;43.80;;;;;;5095659;28;20479;-71
2022/03/23 00:06:59;;;;;;;11.07;5.43;;;7.30;43.70;;;;;;5098477;28;20012;-70
2022/03/23 00:09:27;;;;;;;7.85;5.25;;;7.30;44.20;;;;;;5095414;28;20360;-71
2022/03/23 00:11:53;;;;;;;9.48;5.70;;;7.30;43.80;;;;;;5094139;28;20708;-70
2022/03/23 00:14:19;;;;;;;10.02;5.60;;;7.30;43.80;;;;;;5098574;28;20440;-70
2022/03/23 00:16:45;;;;;;;8.97;5.83;;;7.20;44.20;;;;;;5092617;28;20146;-71
2022/03/23 00:19:11;;;;;;;9.23;5.73;;;7.20;44.40;;;;;;5097428;28;20273;-70
2022/03/23 00:21:38;;;;;;;8.55;5.75;;;7.20;44.70;;;;;;5092129;28;20015;-71
2022/03/23 00:24:05;;;;;;;7.45;4.75;;;7.20;44.70;;;;;;5096664;28;20027;-70
2022/03/23 00:26:31;;;;;;;11.90;5.70;;;7.20;44.50;;;;;;5097303;28;20023;-71
2022/03/23 00:28:57;;;;;;;10.77;5.70;;;7.20;45.50;;;;;;5094062;28;20023;-71
2022/03/23 00:31:24;;;;;;;8.18;5.47;;;7.10;44.50;;;;;;5097835;28;20019;-71
2022/03/23 00:33:51;;;;;;;9.57;5.28;;;7.10;44.20;;;;;;5091155;28;20031;-71
2022/03/23 00:36:18;;;;;;;10.43;5.28;;;7.20;44.10;;;;;;5098234;28;20449;-71
2022/03/23 00:38:44;;;;;;;6.85;4.75;;;7.20;44.20;;;;;;5093525;28;20028;-71
2022/03/23 00:41:11;;;;;;;10.20;5.67;;;7.10;44.10;;;;;;5096626;28;20061;-71
2022/03/23 00:43:37;;;;;;;9.98;6.07;;;7.10;44.30;;;;;;5093570;28;20102;-72
2022/03/23 00:46:02;;;;;;;10.43;5.83;;;7.10;44.30;;;;;;5096751;28;20761;-71
2022/03/23 00:48:28;;;;;;;8.43;5.90;;;7.00;44.70;;;;;;5096682;28;20150;-70
2022/03/23 00:50:54;;;;;;;8.07;5.27;;;7.00;45.10;;;;;;5092750;28;20024;-70
2022/03/23 00:53:20;;;;;;;8.30;5.22;;;7.00;45.90;;;;;;5096803;28;20015;-71
2022/03/23 00:55:45;;;;;;;9.57;5.37;;;7.00;44.40;;;;;;5092909;28;20436;-71
2022/03/23 00:58:11;;;;;;;9.30;5.37;;;7.00;44.40;;;;;;5096753;28;20111;-71
2022/03/23 01:00:37;;;;;;;8.83;5.57;;;7.00;44.70;;;;;;5091423;28;20110;-71
2022/03/23 01:03:04;;;;;;;10.17;5.47;;;7.10;44.50;;;;;;5097273;28;20437;-71
2022/03/23 01:05:31;;;;;;;9.07;5.72;;;7.10;44.20;;;;;;5096322;28;20030;-71
2022/03/23 01:07:57;;;;;;;10.13;5.75;;;7.00;44.10;;;;;;5094579;28;20091;-71
2022/03/23 01:10:24;;;;;;;9.43;5.63;;;7.00;44.90;;;;;;5096792;28;20099;-71
2022/03/23 01:12:51;;;;;;;9.95;5.85;;;7.00;44.40;;;;;;5091911;28;20058;-71
2022/03/23 01:15:22;;;;;;;9.13;5.72;;;7.00;44.50;;;;;;5096744;28;20480;-71
2022/03/23 01:17:49;;;;;;;8.73;5.20;;;7.00;44.70;;;;;;5090392;28;20047;-71
2022/03/23 01:20:17;;;;;;;7.60;5.35;;;7.00;44.80;;;;;;5099518;28;20027;-71
2022/03/23 01:22:44;;;;;;;10.25;6.03;;;7.00;44.80;;;;;;5094347;28;20157;-71
2022/03/23 01:25:11;;;;;;;10.57;6.25;;;6.90;44.40;;;;;;5097652;28;20011;-71
2022/03/23 01:27:40;;;;;;;10.60;6.40;;;6.90;44.50;;;;;;5092076;28;20011;-71
2022/03/23 01:30:08;;;;;;;9.93;5.72;;;6.90;45.00;;;;;;5094335;28;20600;-71
2022/03/23 01:32:35;;;;;;;11.23;5.97;;;6.90;44.90;;;;;;5092843;28;20087;-71
2022/03/23 01:35:02;;;;;;;10.70;6.20;;;6.90;45.40;;;;;;5096478;28;20056;-71
2022/03/23 01:37:28;;;;;;;10.50;5.60;;;6.90;45.70;;;;;;5095712;28;20028;-71
2022/03/23 01:39:55;;;;;;;10.30;5.53;;;6.90;45.60;;;;;;5092373;28;20629;-70
2022/03/23 01:42:20;;;;;;;;;;;6.80;44.80;;;;;;5098487;28;20023;-71
2022/03/23 01:44:47;;;;;;;11.10;5.45;;;6.80;45.50;;;;;;5093779;28;20024;-71
2022/03/23 01:47:16;;;;;;;8.90;5.43;;;6.80;45.40;;;;;;5097728;28;20028;-70
2022/03/23 01:49:50;;;;;;;10.93;5.55;;;6.80;45.20;;;;;;5091825;28;21013;-71
2022/03/23 01:52:18;;;;;;;9.13;5.63;;;6.80;45.30;;;;;;5097744;28;20015;-70
2022/03/23 01:54:44;;;;;;;8.70;5.20;;;6.80;45.30;;;;;;5091979;28;20403;-71
2022/03/23 01:57:13;;;;;;;11.48;5.45;;;6.80;45.10;;;;;;5096344;28;20305;-71
2022/03/23 01:59:39;;;;;;;10.50;5.40;;;6.80;44.40;;;;;;5091981;28;20028;-71
2022/03/23 02:02:06;;;;;;;11.02;5.55;;;6.80;44.80;;;;;;5095614;28;20047;-71
2022/03/23 02:04:32;;;;;;;9.77;5.45;;;6.90;44.90;;;;;;5094474;28;20022;-70
2022/03/23 02:06:58;;;;;;;10.88;5.25;;;6.90;44.80;;;;;;5092725;28;20015;-70
2022/03/23 02:09:25;;;;;;;9.65;5.22;;;6.90;45.20;;;;;;5095563;27;20027;-71
2022/03/23 02:11:52;;;;;;;12.98;5.90;;;6.90;45.50;;;;;;5091229;28;20023;-71
2022/03/23 02:14:19;;;;;;;10.40;5.72;;;6.80;45.60;;;;;;5095007;28;20023;-71
2022/03/23 02:16:48;;;;;;;8.57;5.25;;;6.80;45.50;;;;;;5091501;28;20422;-71
2022/03/23 02:19:14;;;;;;;10.48;5.60;;;6.80;45.50;;;;;;5094849;28;20023;-70
2022/03/23 02:21:48;;;;;;;8.75;4.75;;;6.80;45.70;;;;;;5092281;28;20024;-71
2022/03/23 02:24:15;;;;;;;8.30;4.95;;;6.80;45.90;;;;;;5096647;28;20020;-71
2022/03/23 02:26:42;;;;;;;11.40;5.68;;;6.80;45.50;;;;;;5090065;28;20028;-71
2022/03/23 02:29:09;;;;;;;8.18;4.97;;;6.80;45.50;;;;;;5096181;28;20036;-70
2022/03/23 02:31:36;;;;;;;8.60;4.82;;;6.80;45.20;;;;;;5090600;28;20080;-71
2022/03/23 02:34:03;;;;;;;9.13;4.95;;;6.80;45.00;;;;;;5095460;28;20034;-71
2022/03/23 02:36:29;;;;;;;;;;;6.80;45.70;;;;;;5096875;28;20400;-71
2022/03/23 02:38:54;;;;;;;6.35;4.28;;;6.80;46.20;;;;;;5091613;28;20411;-71
2022/03/23 02:41:21;;;;;;;7.53;4.73;;;6.80;45.50;;;;;;5095653;28;20534;-71
2022/03/23 02:43:47;;;;;;;7.68;4.68;;;6.70;45.80;;;;;;5090364;28;20022;-71
2022/03/23 02:46:15;;;;;;;8.87;4.47;;;6.60;46.30;;;;;;5095048;28;20032;-71
2022/03/23 02:48:41;;;;;;;7.47;4.80;;;6.70;46.30;;;;;;5088733;28;20031;-71
2022/03/23 02:51:07;;;;;;;8.48;4.40;;;6.60;46.40;;;;;;5095790;28;20104;-71
2022/03/23 03:02:12;;;;;;;7.30;4.55;;;6.50;46.40;;;;;;5090312;28;20070;-71
2022/03/23 03:04:38;;;;;;;9.45;4.72;;;6.50;46.50;;;;;;5090126;28;20446;-70
2022/03/23 03:07:04;;;;;;;6.93;4.55;;;6.50;46.70;;;;;;5095332;28;20219;-71
2022/03/23 03:09:31;;;;;;;8.73;4.97;;;6.50;46.30;;;;;;5095681;28;20185;-71
2022/03/23 03:11:57;;;;;;;8.13;5.10;;;6.50;45.80;;;;;;5089977;28;20024;-70
2022/03/23 03:14:23;;;;;;;10.97;5.40;;;6.50;45.40;;;;;;5095560;28;20031;-71
2022/03/23 03:16:48;;;;;;;8.97;4.93;;;6.50;45.80;;;;;;5091077;28;20146;-71
2022/03/23 03:19:14;;;;;;;10.07;5.13;;;6.50;45.60;;;;;;5094861;28;20028;-70
2022/03/23 03:21:40;;;;;;;8.43;5.23;;;6.50;46.10;;;;;;5090563;28;20024;-71
2022/03/23 03:24:06;;;;;;;9.77;6.15;;;6.50;46.10;;;;;;5095549;28;20069;-71
2022/03/23 03:26:32;;;;;;;12.50;5.63;;;6.40;46.40;;;;;;5096079;28;20020;-71
2022/03/23 03:28:58;;;;;;;10.77;5.20;;;6.40;46.20;;;;;;5091077;28;20027;-70
2022/03/23 03:31:24;;;;;;;10.23;5.95;;;6.40;46.10;;;;;;5095049;28;20929;-70
2022/03/23 03:33:50;;;;;;;10.40;6.00;;;6.40;46.40;;;;;;5092404;28;20031;-71
2022/03/23 03:36:18;;;;;;;9.17;6.30;;;6.40;47.50;;;;;;5095570;28;20088;-70
2022/03/23 03:38:44;;;;;;;10.20;6.10;;;6.40;48.00;;;;;;5090303;28;20042;-71
2022/03/23 03:41:10;;;;;;;9.35;6.05;;;6.40;48.20;;;;;;5094485;28;20024;-71
2022/03/23 03:43:36;;;;;;;8.75;5.82;;;6.30;48.80;;;;;;5093864;28;20020;-71
2022/03/23 03:46:06;;;;;;;11.20;6.30;;;6.30;47.10;;;;;;5095462;28;20015;-71
2022/03/23 03:48:33;;;;;;;11.25;6.22;;;6.30;48.40;;;;;;5098590;28;20574;-71
2022/03/23 03:50:59;;;;;;;10.63;6.78;;;6.30;47.90;;;;;;5093901;28;20462;-71
2022/03/23 03:53:25;;;;;;;14.10;5.95;;;6.20;47.90;;;;;;5096479;28;20088;-71
2022/03/23 03:55:50;;;;;;;10.67;6.27;;;6.20;48.30;;;;;;5091629;28;20100;-71
2022/03/23 03:58:17;;;;;;;9.93;6.30;;;6.20;49.10;;;;;;5104779;28;20020;-71
2022/03/23 04:00:44;;;;;;;10.45;6.65;;;6.10;49.60;;;;;;5095933;28;20028;-72
2022/03/23 04:03:09;;;;;;;;;;;6.10;49.20;;;;;;5100056;28;20027;-71
2022/03/23 04:05:36;;;;;;;8.77;5.72;;;6.10;48.90;;;;;;5097822;28;19903;-71
2022/03/23 04:08:02;;;;;;;11.20;6.05;;;6.10;49.20;;;;;;5091586;28;20705;-71
2022/03/23 04:10:28;;;;;;;10.75;6.75;;;6.00;49.60;;;;;;5094998;28;20024;-71
2022/03/23 04:12:54;;;;;;;11.03;6.10;;;6.00;49.80;;;;;;5094482;28;20031;-71
2022/03/23 04:15:21;;;;;;;9.93;6.97;;;5.90;49.70;;;;;;5098222;28;20031;-71
2022/03/23 04:17:48;;;;;;;12.63;6.68;;;5.90;49.10;;;;;;5094567;28;20793;-71
2022/03/23 04:20:14;;;;;;;9.45;5.63;;;5.90;49.50;;;;;;5098020;28;20024;-71
2022/03/23 04:22:40;;;;;;;9.68;6.65;;;5.90;49.70;;;;;;5095463;28;20062;-71
2022/03/23 04:25:07;;;;;;;11.30;5.80;;;5.90;50.30;;;;;;5096808;28;20028;-70
2022/03/23 04:27:36;;;;;;;9.73;6.20;;;5.80;50.20;;;;;;5095654;28;20509;-70
2022/03/23 04:30:02;;;;;;;13.00;6.53;;;5.70;50.10;;;;;;5091302;28;20031;-71
2022/03/23 04:32:28;;;;;;;10.02;6.25;;;5.70;50.40;;;;;;5097992;28;20027;-71
2022/03/23 04:34:53;;;;;;;16.93;6.00;;;5.60;50.50;;;;;;5094271;28;20031;-71
2022/03/23 04:37:19;;;;;;;8.50;6.17;;;5.60;50.40;;;;;;5097941;28;20020;-71
2022/03/23 04:39:45;;;;;;;14.07;6.67;;;5.60;50.80;;;;;;5091821;28;20024;-71
2022/03/23 04:42:13;;;;;;;9.65;5.80;;;5.50;50.50;;;;;;5095999;28;20472;-71
2022/03/23 04:44:39;;;;;;;12.05;7.25;;;5.50;50.50;;;;;;5097599;27;20024;-71
2022/03/23 04:47:06;;;;;;;13.53;6.37;;;5.50;50.40;;;;;;5092611;28;20107;-70
2022/03/23 04:49:32;;;;;;;10.27;6.20;;;5.50;49.90;;;;;;5093607;28;20424;-70
2022/03/23 04:51:58;;;;;;;14.83;6.07;;;5.50;49.80;;;;;;5093345;28;20130;-71
2022/03/23 04:54:25;;;;;;;8.63;5.53;;;5.60;49.90;;;;;;5097073;28;20031;-70
2022/03/23 04:56:52;;;;;;;12.07;6.43;;;5.60;50.80;;;;;;5093176;28;20083;-71
2022/03/23 04:59:18;;;;;;;9.93;6.38;;;5.60;50.70;;;;;;5096858;28;20019;-70
2022/03/23 05:01:43;;;;;;;10.50;6.07;;;5.60;50.70;;;;;;5092613;28;20042;-71
2022/03/23 05:04:09;;;;;;;13.80;7.07;;;5.70;50.40;;;;;;5096797;28;20020;-71
2022/03/23 05:06:35;;;;;;;10.07;6.10;;;5.70;49.80;;;;;;5098116;28;20476;-70
2022/03/23 05:09:01;;;;;;;10.80;6.50;;;5.80;49.50;;;;;;5093246;28;20016;-71
2022/03/23 05:11:27;;;;;;;12.13;6.37;;;6.00;50.40;;;;;;5093710;27;20093;-70
2022/03/23 05:13:53;;;;;;;11.93;6.60;;;6.20;50.30;;;;;;5093503;28;20603;-71
2022/03/23 05:16:19;;;;;;;10.73;6.85;;;6.80;49.90;;;;;;5097632;28;20452;-71
2022/03/23 05:18:45;;;;;;;9.63;6.33;;;7.40;48.70;;;;;;5091879;28;20046;-71
2022/03/23 05:21:12;;;;;;;16.30;7.40;;;8.10;47.50;;;;;;5095467;28;20703;-70
2022/03/23 05:23:38;;;;;;;10.70;6.28;;;9.00;46.10;;;;;;5097256;28;20065;-71
2022/03/23 05:26:03;;;;;;;9.50;5.90;;;10.10;44.10;;;;;;5091006;28;20499;-71
2022/03/23 05:28:29;;;;;;;12.60;6.77;;;11.30;42.20;;;;;;5096065;28;20023;-71
2022/03/23 05:30:56;;;;;;;12.23;6.77;;;12.30;40.80;;;;;;5093173;28;20833;-72
2022/03/23 05:33:21;;;;;;;11.80;6.50;;;13.10;39.00;;;;;;5096320;28;20076;-71
2022/03/23 05:35:47;;;;;;;7.47;6.33;;;14.00;37.80;;;;;;5091351;28;20023;-71
2022/03/23 05:38:13;;;;;;;12.50;6.90;;;14.70;37.30;;;;;;5098087;28;20268;-71
2022/03/23 05:40:40;;;;;;;12.30;7.37;;;15.10;36.90;;;;;;5095176;28;20091;-71
2022/03/23 05:43:06;;;;;;;10.77;7.15;;;15.40;36.50;;;;;;5090604;28;20012;-71
2022/03/23 05:45:32;;;;;;;10.68;7.75;;;15.60;35.50;;;;;;5096348;28;20027;-72
2022/03/23 05:47:58;;;;;;;12.13;8.10;;;15.70;35.00;;;;;;5092806;28;20046;-71
2022/03/23 05:50:24;;;;;;;11.85;7.60;;;16.00;34.60;;;;;;5094897;28;21656;-71
2022/03/23 05:52:49;;;;;;;12.23;7.82;;;16.40;34.30;;;;;;5093355;28;20054;-72
2022/03/23 05:55:16;;;;;;;11.15;7.22;;;17.10;33.70;;;;;;5094867;28;20027;-71
2022/03/23 05:57:42;;;;;;;13.85;8.27;;;17.50;33.30;;;;;;5095874;28;20685;-72
2022/03/23 06:00:09;;;;;;;11.65;9.00;;;17.90;32.70;;;;;;5089712;28;20028;-72
2022/03/23 06:02:35;;;;;;;11.10;8.93;;;18.30;32.50;;;;;;5096729;28;20518;-72
2022/03/23 06:05:01;;;;;;;12.02;8.60;;;18.60;32.00;;;;;;5093475;28;20020;-72
2022/03/23 06:07:27;;;;;;;11.27;8.05;;;19.20;31.90;;;;;;5092703;28;20096;-72
2022/03/23 06:09:53;;;;;;;;;;;20.00;31.30;;;;;;5094475;28;20046;-72
2022/03/23 06:12:19;;;;;;;11.98;9.00;;;20.30;30.70;;;;;;5090561;28;20063;-72
2022/03/23 06:14:44;;;;;;;;;;;20.70;30.10;;;;;;5095929;28;20500;-72
2022/03/23 06:17:11;;;;;;;11.52;8.43;;;20.90;30.00;;;;;;5093118;28;19915;-72
2022/03/23 06:19:36;;;;;;;16.50;10.05;;;21.40;29.70;;;;;;5091927;28;20845;-72
2022/03/23 06:22:05;;;;;;;12.68;10.38;;;21.80;29.50;;;;;;5096746;28;20020;-72
2022/03/23 06:24:31;;;;;;;15.70;9.68;;;22.00;29.50;;;;;;5091249;28;20027;-73
2022/03/23 06:26:56;;;;;;;12.20;8.55;;;22.10;29.60;;;;;;5094363;28;20023;-73
2022/03/23 06:29:22;;;;;;;11.90;8.40;;;22.40;29.30;;;;;;5089135;28;20043;-73
2022/03/23 06:31:48;;;;;;;12.80;8.63;;;22.60;28.90;;;;;;5092788;28;20019;-73
2022/03/23 06:34:14;;;;;;;13.73;8.10;;;23.00;28.90;;;;;;5090311;28;20019;-73
2022/03/23 06:36:39;;;;;;;15.02;8.18;;;23.20;28.50;;;;;;5088882;28;20471;-73
2022/03/23 06:39:05;;;;;;;12.45;8.52;;;23.50;28.00;;;;;;5091958;28;20028;-72
2022/03/23 06:41:31;;;;;;;11.65;9.00;;;24.00;27.70;;;;;;5089624;28;20095;-72
2022/03/23 06:43:57;;;;;;;12.95;9.50;;;24.00;27.70;;;;;;5094800;28;20020;-72
2022/03/23 06:46:23;;;;;;;11.45;9.40;;;24.00;27.60;;;;;;5089531;28;20011;-73
2022/03/23 06:48:49;;;;;;;11.73;9.63;;;24.20;27.60;;;;;;5091886;28;20027;-73
2022/03/23 06:51:15;;;;;;;12.75;9.50;;;24.50;27.30;;;;;;5093404;28;20050;-72
2022/03/23 06:53:41;;;;;;;18.63;10.63;;;24.80;27.20;;;;;;5090670;28;20119;-73
2022/03/23 06:56:08;;;;;;;16.95;10.82;;;25.10;27.10;;;;;;5094768;28;20488;-73
2022/03/23 06:58:34;;;;;;;18.52;10.90;;;25.50;26.90;;;;;;5091349;28;20031;-73
2022/03/23 07:01:01;;;;;;;14.50;11.75;;;25.40;26.90;;;;;;5092296;28;20077;-73
2022/03/23 07:03:28;;;;;;;16.17;11.55;;;25.70;26.60;;;;;;5089006;28;20360;-73
2022/03/23 07:05:54;;;;;;;13.68;10.98;;;26.10;26.50;;;;;;5092917;28;20043;-73
2022/03/23 07:11:05;;;;;;;15.52;11.20;;;26.60;26.30;;;;;;5092445;28;20066;-72
2022/03/23 07:13:31;;;;;;;15.57;12.73;;;27.00;25.90;;;;;;5090109;28;20046;-72
2022/03/23 07:15:57;;;;;;;19.15;13.02;;;27.30;25.90;;;;;;5094159;28;20016;-72
2022/03/23 07:18:23;;;;;;;15.10;11.80;;;27.70;25.90;;;;;;5088786;28;20100;-72
2022/03/23 07:20:48;;;;;;;14.70;11.48;;;27.90;25.60;;;;;;5095606;28;20028;-72
2022/03/23 07:23:15;;;;;;;20.92;11.80;;;27.80;25.60;;;;;;5097589;28;20030;-72
2022/03/23 07:25:41;;;;;;;20.13;11.98;;;27.70;25.50;;;;;;5092875;28;20514;-71
2022/03/23 07:28:07;;;;;;;16.33;10.95;;;27.80;25.40;;;;;;5096592;28;20031;-72
2022/03/23 07:30:34;;;;;;;12.90;11.45;;;27.90;25.60;;;;;;5093034;28;20697;-72
2022/03/23 07:33:00;;;;;;;13.02;9.75;;;28.10;25.30;;;;;;5098657;28;20031;-72
2022/03/23 07:35:27;;;;;;;14.90;10.00;;;28.20;24.60;;;;;;5093258;28;20032;-72
2022/03/23 07:37:53;;;;;;;8.52;6.80;;;28.70;24.80;;;;;;5097219;28;20019;-72
2022/03/23 07:40:19;;;;;;;8.20;7.30;;;29.10;23.90;;;;;;5095943;28;20026;-72
2022/03/23 07:42:44;;;;;;;11.27;7.13;;;29.60;23.40;;;;;;5093064;28;20023;-72
2022/03/23 07:45:11;;;;;;;9.63;8.30;;;29.80;23.50;;;;;;5097077;28;20023;-72
2022/03/23 07:47:37;;;;;;;8.77;7.88;;;30.10;23.50;;;;;;5092751;28;20445;-72
2022/03/23 07:50:03;;;;;;;10.02;8.70;;;29.90;23.70;;;;;;5095990;28;20026;-72
2022/03/23 07:52:29;;;;;;;12.05;9.77;;;28.20;23.60;;;;;;5093300;28;20023;-73
2022/03/23 07:54:56;;;;;;;11.10;9.98;;;27.90;23.60;;;;;;5094876;28;20023;-72
2022/03/23 07:57:22;;;;;;;11.68;9.63;;;27.80;23.90;;;;;;5095278;28;20391;-72
2022/03/23 07:59:48;;;;;;;17.77;10.93;;;26.80;24.30;;;;;;5093347;28;20027;-72
2022/03/23 08:02:13;;;;;;;14.23;10.73;;;26.80;24.50;;;;;;5096029;28;20611;-72
2022/03/23 08:04:39;;;;;;;12.43;10.45;;;27.60;24.70;;;;;;5092742;28;20077;-72
2022/03/23 08:07:07;;;;;;;13.60;9.48;;;28.00;24.20;;;;;;5096799;28;20012;-72
2022/03/23 08:09:33;;;;;;;11.27;9.02;;;27.40;24.00;;;;;;5091503;28;20016;-72
2022/03/23 08:11:59;;;;;;;10.85;9.20;;;27.80;24.30;;;;;;5094594;28;20093;-72
2022/03/23 08:14:24;;;;;;;12.38;9.10;;;27.20;24.10;;;;;;5090894;28;20083;-72
2022/03/23 08:16:52;;;;;;;10.25;8.95;;;27.80;24.10;;;;;;5097160;28;20031;-72
2022/03/23 08:19:22;;;;;;;11.85;8.70;;;27.90;23.80;;;;;;5094264;28;20027;-72
2022/03/23 08:21:52;;;;;;;11.68;8.68;;;28.00;24.00;;;;;;5092699;28;20034;-74
2022/03/23 08:24:18;;;;;;;10.98;8.75;;;27.80;24.20;;;;;;5096852;28;20023;-74
2022/03/23 08:26:44;;;;;;;12.63;9.50;;;27.70;24.50;;;;;;5091697;28;20730;-74
2022/03/23 08:29:10;;;;;;;13.10;9.98;;;27.60;24.30;;;;;;5094615;28;20107;-74
2022/03/23 08:31:36;;;;;;;13.43;10.18;;;28.20;24.40;;;;;;5092115;28;20015;-74
2022/03/23 08:34:03;;;;;;;13.45;9.75;;;28.20;24.30;;;;;;5093899;28;20019;-75
2022/03/23 08:36:29;;;;;;;16.33;9.88;;;28.60;24.30;;;;;;5090285;28;20441;-75
2022/03/23 08:38:55;;;;;;;15.63;10.85;;;27.50;24.40;;;;;;5095597;28;20026;-75
2022/03/23 08:41:30;;;;;;;13.85;10.30;;;28.20;24.70;;;;;;5092912;28;20019;-74
2022/03/23 08:43:55;;;;;;;15.00;11.60;;;28.50;24.30;;;;;;5094312;28;20386;-75
2022/03/23 08:46:21;;;;;;;13.90;11.05;;;28.00;24.80;;;;;;5096956;28;20027;-74
2022/03/23 08:48:49;;;;;;;15.88;11.15;;;28.30;24.40;;;;;;5091773;28;20039;-74
2022/03/23 08:51:15;;;;;;;14.95;11.82;;;28.40;24.50;;;;;;5092208;28;20008;-74
2022/03/23 08:53:42;;;;;;;15.85;11.88;;;29.10;24.40;;;;;;5090909;28;20106;-75
2022/03/23 08:56:10;;;;;;;13.23;11.82;;;29.30;24.50;;;;;;5089854;28;20043;-75
2022/03/23 08:58:37;;;;;;;16.80;12.43;;;28.70;24.10;;;;;;5094381;28;20004;-74
2022/03/23 09:01:04;;;;;;;14.55;12.13;;;27.90;24.80;;;;;;5090013;28;20019;-75
2022/03/23 09:03:29;;;;;;;17.08;12.18;;;27.70;25.30;;;;;;5095349;28;20019;-74
2022/03/23 09:05:55;;;;;;;14.35;12.05;;;27.30;24.80;;;;;;5093599;28;20016;-75
2022/03/23 09:08:21;;;;;;;16.30;11.75;;;28.10;24.90;;;;;;5095226;28;20226;-74
2022/03/23 09:10:47;;;;;;;17.30;11.77;;;27.80;24.20;;;;;;5092348;28;20043;-74
2022/03/23 09:13:12;;;;;;;18.50;12.35;;;27.90;24.40;;;;;;5090496;28;20770;-74
2022/03/23 09:15:38;;;;;;;18.02;12.15;;;28.10;24.50;;;;;;5093326;28;20016;-74
2022/03/23 09:18:04;;;;;;;16.77;12.10;;;28.10;24.50;;;;;;5092006;28;20031;-74
2022/03/23 09:20:30;;;;;;;19.17;12.13;;;27.20;24.50;;;;;;5093376;28;20020;-74
2022/03/23 09:22:58;;;;;;;18.77;12.27;;;27.90;24.90;;;;;;5092503;28;20364;-75
2022/03/23 09:25:24;;;;;;;12.25;10.57;;;27.90;24.70;;;;;;5095725;28;20023;-75
2022/03/23 09:27:51;;;;;;;15.48;10.93;;;28.40;24.70;;;;;;5095103;28;20072;-75
2022/03/23 09:30:18;;;;;;;19.48;12.48;;;28.90;24.50;;;;;;5087415;28;20023;-75
2022/03/23 09:32:46;;;;;;;13.80;11.02;;;27.90;24.80;;;;;;5093982;28;20022;-75
2022/03/23 09:35:16;;;;;;;13.25;11.27;;;27.80;24.70;;;;;;5090908;28;20068;-75
2022/03/23 09:37:48;;;;;;;16.77;12.20;;;28.00;24.90;;;;;;5094404;28;20123;-75
2022/03/23 09:40:27;;;;;;;14.00;11.52;;;28.20;24.70;;;;;;5089300;28;20031;-75
2022/03/23 09:42:55;;;;;;;15.00;11.63;;;28.60;24.70;;;;;;5092926;28;20016;-74
2022/03/23 09:45:44;;;;;;;14.32;10.73;;;28.20;24.30;;;;;;5088355;28;20027;-75
2022/03/23 09:48:09;;;;;;;16.20;11.45;;;28.80;24.30;;;;;;5087303;28;20539;-75
2022/03/23 09:50:36;;;;;;;15.55;10.68;;;29.40;24.50;;;;;;5092202;28;20027;-75
2022/03/23 09:53:03;;;;;;;12.98;10.73;;;28.00;24.50;;;;;;5087988;28;20020;-75
2022/03/23 09:55:29;;;;;;;16.45;11.07;;;28.70;24.50;;;;;;5092396;28;20095;-75
2022/03/23 09:57:56;;;;;;;17.60;11.32;;;28.60;24.60;;;;;;5094221;28;20027;-75
2022/03/23 10:00:22;;;;;;;14.73;11.23;;;28.10;24.80;;;;;;5089918;28;20023;-75
2022/03/23 10:02:57;;;;;;;12.23;10.88;;;27.00;25.10;;;;;;5090326;28;20151;-75
2022/03/23 10:05:42;;;;;;;13.68;10.57;;;28.00;25.00;;;;;;5093739;28;20034;-75
2022/03/23 10:08:20;;;;;;;12.37;9.87;;;28.70;24.70;;;;;;5093916;28;20527;-74
2022/03/23 10:11:14;;;;;;;14.95;12.02;;;28.40;24.90;;;;;;5088401;28;20250;-75
2022/03/23 10:14:17;;;;;;;16.60;10.75;;;28.10;24.70;;;;;;5089085;28;20124;-75
2022/03/23 10:17:06;;;;;;;15.60;11.13;;;28.40;24.90;;;;;;5089279;28;20039;-75
2022/03/23 10:19:32;;;;;;;13.50;10.52;;;28.00;24.90;;;;;;5088170;28;20112;-75
2022/03/23 10:22:11;;;;;;;15.40;10.77;;;27.70;25.00;;;;;;5094147;28;20104;-74
2022/03/23 10:24:38;;;;;;;18.77;12.10;;;27.70;25.00;;;;;;5089045;28;20070;-74
2022/03/23 10:27:09;;;;;;;17.00;11.07;;;27.00;25.50;;;;;;5094789;28;20020;-74
2022/03/23 10:29:46;;;;;;;13.05;10.52;;;26.40;25.30;;;;;;5088204;28;20015;-74
2022/03/23 10:32:13;;;;;;;12.93;10.70;;;25.50;25.80;;;;;;5093063;28;20027;-74
2022/03/23 10:34:53;;;;;;;15.40;10.32;;;26.10;25.60;;;;;;5089814;28;20228;-74
2022/03/23 10:37:33;;;;;;;15.07;11.00;;;25.80;25.80;;;;;;5091409;28;20053;-74
2022/03/23 10:40:07;;;;;;;12.73;10.45;;;25.80;25.90;;;;;;5094600;28;20019;-74
2022/03/23 10:42:36;;;;;;;16.20;12.48;;;26.60;25.80;;;;;;5088616;28;20016;-72
2022/03/23 10:45:04;;;;;;;14.30;11.05;;;25.70;25.60;;;;;;5094309;28;20076;-72
2022/03/23 10:47:31;;;;;;;12.93;11.02;;;25.90;26.10;;;;;;5091324;28;20465;-72
2022/03/23 10:50:09;;;;;;;13.35;10.50;;;26.10;26.20;;;;;;5093393;28;20068;-74
2022/03/23 10:52:35;;;;;;;15.10;11.05;;;25.60;26.10;;;;;;5091194;28;20015;-74
2022/03/23 10:55:04;;;;;;;11.80;10.48;;;25.50;26.30;;;;;;5099158;27;20523;-74
2022/03/23 10:57:53;;;;;;;17.63;10.77;;;25.30;26.40;;;;;;5097782;28;20024;-73
2022/03/23 11:00:39;;;;;;;15.50;9.43;;;24.90;26.10;;;;;;5094312;28;20031;-74
2022/03/23 11:03:09;;;;;;;14.05;9.85;;;24.40;26.70;;;;;;5096460;28;20016;-74
2022/03/23 11:05:42;;;;;;;14.27;10.18;;;24.40;26.90;;;;;;5091860;28;20043;-74
2022/03/23 11:08:12;;;;;;;12.48;9.82;;;23.90;27.10;;;;;;5095768;28;20697;-73
2022/03/23 11:16:17;;;;;;;16.85;11.45;;;22.20;28.20;;;;;;5098082;28;20046;-71
2022/03/23 11:18:45;;;;;;;13.43;10.93;;;21.10;28.70;;;;;;5092421;28;20374;-71
2022/03/23 11:21:12;;;;;;;15.07;10.90;;;21.00;29.30;;;;;;5097861;28;20022;-71
2022/03/23 11:23:38;;;;;;;15.98;10.32;;;20.60;29.70;;;;;;5092789;28;20413;-71
2022/03/23 11:26:10;;;;;;;14.82;10.13;;;20.40;29.80;;;;;;5097576;28;20107;-71
2022/03/23 11:28:41;;;;;;;16.08;11.57;;;20.80;29.70;;;;;;5093929;28;20457;-71
2022/03/23 11:31:09;;;;;;;15.85;10.90;;;20.80;29.40;;;;;;5097212;28;20023;-71
2022/03/23 11:33:35;;;;;;;19.33;11.95;;;20.40;29.50;;;;;;5091454;28;20055;-71
2022/03/23 11:36:05;;;;;;;17.83;10.85;;;20.50;29.70;;;;;;5097393;28;20479;-71
2022/03/23 11:38:33;;;;;;;14.88;10.35;;;20.50;29.50;;;;;;5095573;28;20051;-71
2022/03/23 11:40:59;;;;;;;16.20;10.98;;;20.60;29.70;;;;;;5095388;28;20046;-71
2022/03/23 11:43:29;;;;;;;13.13;9.23;;;20.40;29.50;;;;;;5097765;28;20019;-71
2022/03/23 11:45:57;;;;;;;14.80;9.55;;;20.40;29.00;;;;;;5090517;28;20028;-71
2022/03/23 11:48:44;;;;;;;12.63;9.57;;;20.60;29.20;;;;;;5093123;28;20030;-71
2022/03/23 11:51:47;;;;;;;13.50;9.50;;;20.60;29.50;;;;;;5095243;28;20015;-71
2022/03/23 11:54:27;;;;;;;13.23;9.52;;;20.50;29.60;;;;;;5096356;28;20115;-71
2022/03/23 11:56:58;;;;;;;17.92;9.82;;;20.50;29.20;;;;;;5092810;28;20039;-71
2022/03/23 11:59:29;;;;;;;13.52;9.30;;;20.20;29.00;;;;;;5093903;28;20030;-70
2022/03/23 12:01:56;;;;;;;12.90;9.35;;;20.20;29.50;;;;;;5091277;28;20026;-70
2022/03/23 12:04:24;;;;;;;14.15;8.40;;;19.90;29.50;;;;;;5094124;28;20016;-71
2022/03/23 12:07:04;;;;;;;11.32;8.90;;;19.90;29.50;;;;;;5089747;28;20023;-70
2022/03/23 12:09:44;;;;;;;14.30;7.85;;;19.80;29.40;;;;;;5095100;27;20015;-71
2022/03/23 12:12:10;;;;;;;14.75;9.05;;;20.10;29.10;;;;;;5092693;28;20024;-70
2022/03/23 12:14:38;;;;;;;14.43;9.88;;;20.50;30.00;;;;;;5092492;28;20100;-71
2022/03/23 12:17:08;;;;;;;14.98;9.50;;;20.30;29.20;;;;;;5095182;28;20072;-71
2022/03/23 12:19:56;;;;;;;14.07;9.27;;;20.30;29.60;;;;;;5095409;28;20073;-71
2022/03/23 12:22:33;;;;;;;13.90;9.68;;;19.90;29.00;;;;;;5092361;28;20430;-71
2022/03/23 12:25:26;;;;;;;12.88;8.65;;;20.00;29.60;;;;;;5093941;28;20027;-70
2022/03/23 12:28:04;;;;;;;12.27;8.57;;;20.10;29.40;;;;;;5093852;28;20023;-71
2022/03/23 12:30:30;;;;;;;13.40;9.02;;;19.80;29.10;;;;;;5089957;28;20736;-71
2022/03/23 12:33:06;;;;;;;15.40;9.27;;;19.90;29.30;;;;;;5095104;28;20030;-71
2022/03/23 12:35:34;;;;;;;16.08;9.43;;;20.20;29.50;;;;;;5094413;28;20024;-71
2022/03/23 12:38:01;;;;;;;10.98;7.97;;;20.40;29.70;;;;;;5095541;28;20039;-71
2022/03/23 12:40:38;;;;;;;13.65;8.88;;;20.40;28.90;;;;;;5090564;28;20029;-71
2022/03/23 12:43:04;;;;;;;;;;;20.30;29.30;;;;;;5098119;28;20035;-70
2022/03/23 12:45:36;;;;;;;14.57;8.98;;;20.50;28.70;;;;;;5091772;28;19907;-70
2022/03/23 12:57:49;;;;;;;14.95;8.70;;;20.60;28.90;;;;;;5093785;28;20124;-71
2022/03/23 12:59:21;;;;;;;13.68;9.15;;;19.80;29.00;;;;;;5094884;28;20054;-71
2022/03/23 13:01:53;;;;;;;18.58;8.55;;;19.80;29.30;;;;;;5089674;28;20016;-71
2022/03/23 13:04:42;;;;;;;13.45;8.50;;;20.00;29.00;;;;;;5094514;28;20026;-70
2022/03/23 13:07:30;;;;;;;12.65;7.63;;;19.80;28.80;;;;;;5093192;28;20034;-71
2022/03/23 13:10:04;;;;;;;11.27;8.13;;;19.80;28.90;;;;;;5094162;28;20041;-71
2022/03/23 13:12:31;;;;;;;15.55;8.50;;;20.00;29.10;;;;;;5088581;28;20012;-71
2022/03/23 13:14:58;;;;;;;10.13;7.25;;;20.00;28.90;;;;;;5094353;28;20129;-71